Boyd Deep Canyon Reserve, California Weather observations

Data are for 10 minute period ending at time listed.
 Day   Time   Solar   Ave.   Ave.  Ave.  Vector  Max.   Baro.   Total    
  of    of     Rad.   Air    Rel.  Wind   Wind   Wind  Press.  Precip.   
Year   Day            Temp.  Hum.  Speed  Dir.   Gust                    
2014   (PST)  Kw/m2    F      %     mph   deg.    mph    mb.     in.     
-------------------------------------------------------------------------
 241    8:10   0.53   99.6    13    0.7   173     2.2   974.8    0.00 
 241    8:20   0.57   99.1    13    1.5    82     3.4   974.8    0.00 
 241    8:30   0.60   99.0    13    2.2    77     4.3   975.0    0.00 
 241    8:40   0.63   98.6    13    3.9    28     5.6   975.2    0.00 
 241    8:50   0.66   99.0    12    3.4     8     6.2   975.3    0.00 
 241    9:00   0.69   99.1    13    4.3    23     7.2   975.4    0.00 
 241    9:10   0.72   99.2    12    3.5   351     7.0   975.4    0.00 
 241    9:20   0.75  100.1    12    3.0   356     6.0   975.3    0.00 
 241    9:30   0.78  100.7    11    4.0    10     7.2   975.2    0.00 
 241    9:40   0.80  101.0    12    4.3   357     7.7   975.2    0.00 
 241    9:50   0.82  100.9    12    4.5   347     9.2   975.1    0.00 
 241   10:00   0.85  101.8    11    4.8   358     9.6   975.1    0.00 
 241   10:10   0.86  102.4    11    4.3   358     8.5   975.1    0.00 
 241   10:20   0.88  102.6    11    3.7   355     8.8   974.9    0.00 
 241   10:30   0.90  103.0    11    4.3   351     9.5   974.8    0.00 
 241   10:40   0.91  103.5    11    6.5   352    10.7   974.7    0.00 
 241   10:50   0.92  104.3    11    5.8    12    11.2   974.6    0.00 
 241   11:00   0.93  104.2    11    5.0    45    10.7   974.4    0.00 
 241   11:10   0.94  104.2    11    6.1    78    10.6   974.3    0.00 
 241   11:20   0.95  104.6    10    5.6    77    11.3   974.2    0.00 
 241   11:30   0.96  104.5    10    6.6    49    13.8   974.1    0.00 
 241   11:40   0.96  105.1    10    5.4    52    14.7   974.0    0.00 
 241   11:50   0.96  105.3     9    7.6    33    13.4   973.9    0.00 
 241   12:00   0.96  105.2    10    6.4    43    11.8   973.8    0.00 
 241   12:10   0.96  105.6    10    8.4    32    14.5   973.7    0.00 
 241   12:20   0.92  105.5    10    6.4    41    13.2   973.6    0.00 
 241   12:30   0.95  105.4    10    6.9    68    14.2   973.5    0.00 
 241   12:40   0.94  105.7    10    6.4    59    12.5   973.4    0.00 
 241   12:50   0.93  105.8    10    6.4    54    11.5   973.3    0.00 
 241   13:00   0.92  105.8    10    6.8    69    15.6   973.2    0.00 
 241   13:10   0.90  106.4     9    7.2    56    12.9   973.0    0.00 
 241   13:20   0.89  106.5    10    7.3    74    12.4   972.8    0.00 
 241   13:30   0.87  106.5    10    4.5    86     9.9   972.6    0.00 
 241   13:40   0.85  106.9    10    5.1    49    12.9   972.4    0.00 
 241   13:50   0.83  107.7    10    6.8     4    11.6   972.3    0.00 
 241   14:00   0.80  107.1    10    6.4    44    15.5   972.2    0.00 
 241   14:10   0.78  106.6    10    6.7    73    15.9   972.1    0.00 
 241   14:20   0.76  107.3     9    4.0    68    11.2   972.0    0.00 
 241   14:30   0.73  106.8     9    5.7    34    13.2   971.9    0.00 
 241   14:40   0.70  106.8     9    4.9    78    10.5   971.8    0.00 
 241   14:50   0.67  106.3     9    5.5    54    11.0   971.7    0.00 
 241   15:00   0.64  106.3     9    7.9    68    18.2   971.7    0.00 
 241   15:10   0.61  106.4     9    6.5    64    14.2   971.6    0.00 
 241   15:20   0.58  106.4     9    5.3    58    11.2   971.6    0.00 
 241   15:30   0.55  106.8     9    6.2    74    10.6   971.6    0.00 
 241   15:40   0.51  106.2     9    5.0    76     9.4   971.5    0.00 
 241   15:50   0.48  106.7     9    7.3    49    11.8   971.4    0.00 
 241   16:00   0.44  105.7     9    7.0    85    11.7   971.4    0.00 
 241   16:10   0.41  105.8     9    7.4    66    11.0   971.4    0.00 
 241   16:20   0.37  105.6     9    6.5    74    11.7   971.4    0.00 
 241   16:30   0.34  105.9     9    5.2    63     9.0   971.3    0.00 
 241   16:40   0.30  105.8     9    6.4    63    10.9   971.3    0.00 
 241   16:50   0.26  105.4     9    6.1    70    10.9   971.3    0.00 
 241   17:00   0.23  105.0     9    6.7    65    11.0   971.2    0.00 
 241   17:10   0.18  104.8     9    5.6    66    10.7   971.2    0.00 
 241   17:20   0.03  104.1    10    4.3    73     7.3   971.1    0.00 
 241   17:30   0.02  103.6    10    7.4    57     9.8   971.0    0.00 
 241   17:40   0.01  103.5    10    5.5     5    10.2   970.9    0.00 
 241   17:50   0.01  103.2     9    9.8   185    17.5   971.0    0.00 
 241   18:00   0.01  102.3    10   10.4   181    19.6   971.1    0.00 
 241   18:10   0.01  101.5    10   10.6   192    19.0   971.2    0.00 
 241   18:20   0.00  100.8    11   10.4   180    16.8   971.2    0.00 
 241   18:30   0.00  100.2    11   11.0   179    20.0   971.4    0.00 
 241   18:40   0.00   99.6    11   10.5   174    16.0   971.5    0.00 
 241   18:50   0.00   99.0    11   13.3   176    22.3   971.5    0.00 
 241   19:00   0.00   98.5    11   14.3   175    20.5   971.6    0.00 
 241   19:10   0.00   98.1    11   14.1   171    21.0   971.7    0.00 
 241   19:20   0.00   97.7    11   14.2   171    22.7   971.8    0.00 
 241   19:30   0.00   97.4    12   16.4   175    22.5   971.9    0.00 
 241   19:40   0.00   97.1    12   16.8   173    26.2   971.9    0.00 
 241   19:50   0.00   96.9    13   15.7   174    24.7   971.9    0.00 
 241   20:00   0.00   96.7    13   16.6   174    25.8   971.9    0.00 
 241   20:10   0.00   96.6    13   17.5   176    26.7   971.9    0.00 
 241   20:20   0.00   96.7    13   17.2   176    27.1   971.9    0.00 
 241   20:30   0.00   96.8    12   14.8   178    22.4   972.0    0.00 
 241   20:40   0.00   96.8    12   14.7   181    25.5   972.1    0.00 
 241   20:50   0.00   96.9    12   15.2   184    23.6   972.0    0.00 
 241   21:00   0.00   96.7    11   13.8   183    22.4   972.1    0.00 
 241   21:10   0.00   96.7    11   11.6   186    18.3   972.1    0.00 
 241   21:20   0.00   96.5    11    9.2   190    15.4   972.1    0.00 
 241   21:30   0.00   96.2    11   11.5   206    18.7   972.1    0.00 
 241   21:40   0.00   96.0    11   13.6   204    20.8   972.0    0.00 
 241   21:50   0.00   96.1    10   11.9   213    19.6   971.9    0.00 
 241   22:00   0.00   95.7    11   12.9   201    19.1   971.9    0.00 
 241   22:10   0.00   95.3    10   13.2   177    21.2   971.9    0.00 
 241   22:20   0.00   95.4    10   14.1   177    21.8   971.9    0.00 
 241   22:30   0.00   95.5    10   10.2   193    18.2   972.0    0.00 
 241   22:40   0.00   93.5    12    5.2   202    13.5   972.0    0.00 
 241   22:50   0.00   95.1    10   12.3   176    18.0   971.9    0.00 
 241   23:00   0.00   95.3    10   12.9   179    18.3   971.9    0.00 
 241   23:10   0.00   95.5    10   11.0   183    17.9   971.9    0.00 
 241   23:20   0.00   95.1     9   12.1   178    19.6   971.9    0.00 
 241   23:30   0.00   95.2     9   13.9   178    19.1   971.9    0.00 
 241   23:40   0.00   95.0    10   13.7   176    18.4   971.9    0.00 
 241   23:50   0.00   94.8    10   15.3   175    23.1   971.9    0.00 
 242    0:00   0.00   94.5    10   13.9   180    22.3   971.9    0.00 
 242    0:10   0.00   94.6    10   11.3   185    19.1   971.8    0.00 
 242    0:20   0.00   94.7    10   10.7   187    15.6   971.7    0.00 
 242    0:30   0.00   93.9    10   10.4   208    17.0   971.6    0.00 
 242    0:40   0.00   93.7    10   10.2   209    17.5   971.6    0.00 
 242    0:50   0.00   93.6    10   10.0   201    15.9   971.6    0.00 
 242    1:00   0.00   93.9    10   10.7   177    18.3   971.6    0.00 
 242    1:10   0.00   94.0    10    9.6   177    17.0   971.6    0.00 
 242    1:20   0.00   94.2    10    9.8   176    18.6   971.6    0.00 
 242    1:30   0.00   94.0    10   10.3   180    17.8   971.5    0.00 
 242    1:40   0.00   94.6    10   11.1   183    17.5   971.4    0.00 
 242    1:50   0.00   93.8    10    7.5   182    12.8   971.5    0.00 
 242    2:00   0.00   93.1    10    5.8   189    10.7   971.4    0.00 
 242    2:10   0.00   92.9    10    6.1   202    11.9   971.3    0.00 
 242    2:20   0.00   92.7    10    5.4   209    10.0   971.3    0.00 
 242    2:30   0.00   91.5    11    4.4   236     8.8   971.3    0.00 
 242    2:40   0.00   87.4    16    4.5    80     6.4   971.3    0.00 
 242    2:50   0.00   85.9    19    2.7    35     4.0   971.4    0.00 
 242    3:00   0.00   85.5    19    2.6    53     4.9   971.4    0.00 
 242    3:10   0.00   85.5    18    2.0   215     7.2   971.4    0.00 
 242    3:20   0.00   90.3    11    7.4   196    12.3   971.3    0.00 
 242    3:30   0.00   91.3    10    8.8   199    17.2   971.3    0.00 
 242    3:40   0.00   91.1    11    8.1   198    12.5   971.3    0.00 
 242    3:50   0.00   90.7    11    6.6   212    11.0   971.4    0.00 
 242    4:00   0.00   90.8    11    7.0   218    13.0   971.3    0.00 
 242    4:10   0.00   89.9    12    5.7   199    11.9   971.4    0.00 
 242    4:20   0.00   85.4    17    4.6    62     6.8   971.6    0.00 
 242    4:30   0.00   85.0    18    3.6    51     4.8   971.7    0.00 
 242    4:40   0.00   84.8    19    2.8    80     4.2   971.8    0.00 
 242    4:50   0.00   84.5    19    0.7   220     3.0   971.8    0.00 
 242    5:00   0.00   84.3    18    1.4    65     5.0   971.8    0.00 
 242    5:10   0.00   84.6    16    2.8   194     9.1   971.8    0.00 
 242    5:20   0.00   89.6    10    6.3   192    10.5   971.9    0.00 
 242    5:30   0.00   90.3    10    7.5   192    14.0   971.9    0.00 
 242    5:40   0.01   90.7    10    8.2   201    14.2   971.9    0.00 
 242    5:50   0.01   90.8    10    8.0   198    12.9   971.9    0.00 
 242    6:00   0.01   90.8    10    6.2   194    13.9   972.0    0.00 
 242    6:10   0.01   91.5    10    6.6   168    11.4   972.1    0.00 
 242    6:20   0.11   85.9    17    4.2    58     6.5   972.3    0.00 
 242    6:30   0.17   85.0    19    1.7    54     3.9   972.3    0.00 
 242    6:40   0.21   86.6    18    1.3    63     2.3   972.3    0.00 
 242    6:50   0.24   87.9    16    1.4    37     2.5   972.4    0.00 
 242    7:00   0.28   88.3    16    2.0    58     3.5   972.4    0.00 
 242    7:10   0.32   88.6    15    2.3    51     4.7   972.5    0.00 
 242    7:20   0.35   90.0    14    1.4   102     3.6   972.6    0.00 
 242    7:30   0.39   90.4    13    1.9   120     4.4   972.6    0.00 
 242    7:40   0.43   92.6    13    0.7   130     1.8   972.6    0.00 
 242    7:50   0.46   93.9    12    0.9    66     2.5   972.6    0.00 
 242    8:00   0.50   94.0    12    1.6    42     3.0   972.7    0.00 

Return to Boyd Deep Canyon Reserve graphs page.


Western Regional Climate Center,wrcc@dri.edu